Santo Domingo, Dominican Republic
Current Conditions -  °F | °C
As of 4:00 PM on Thursday 23 Oct 2014 (Local Time) from MDSD Reporting Station
Scattered Clouds Scattered Clouds  
Wind Chill: 88°   Ceiling: Unl
Heat Index: 94°   Visibility: 6mi
Dew Point: 72°   Wind: 8mph
Humidity: 58%   Direction: 190°S
Pressure: 29.85"   Gusts: NA
Location:  18.48°N, 69.91°W
Report Text: MDSD 232000Z 19007KT 9999 SCT020 SCT300 31/22 Q1011
Loading
Personal Weather Stations






























Interactive Weather Map
Tropical Storm Tracking
New forecast layout! Learn more

10-Day Weather Forecast

Advertisements
Track Severe Weather on mobile